Time;durP1;ratioP1;P1;durP2;ratioP2;P2;SDS_P1;SDS_P2;PMS_P1;PMS_P2;Temp;Humidity;BMP_temperature;BMP_pressure;BME280_temperature;BME280_humidity;BME280_pressure;Samples;Min_cycle;Max_cycle;Signal;HPM_P1;HPM_P2
2021/11/29 00:01:48;;;;;;;1.10;0.90;;;3.30;99.90;;;;;;4891251;29;20362;-65
2021/11/29 00:04:14;;;;;;;1.65;1.10;;;3.40;99.90;;;;;;4889988;29;20047;-65
2021/11/29 00:06:40;;;;;;;1.65;1.02;;;3.40;99.90;;;;;;4890248;29;20395;-66
2021/11/29 00:09:06;;;;;;;2.38;1.33;;;3.30;99.90;;;;;;4889939;29;20096;-66
2021/11/29 00:11:32;;;;;;;1.63;1.10;;;3.40;99.90;;;;;;4890222;29;20418;-65
2021/11/29 00:13:58;;;;;;;4.30;1.33;;;3.40;99.90;;;;;;4889890;29;20208;-65
2021/11/29 00:16:23;;;;;;;0.75;0.70;;;3.40;99.90;;;;;;4889592;29;20072;-66
2021/11/29 00:18:49;;;;;;;1.30;0.70;;;3.40;99.90;;;;;;4890521;29;20040;-65
2021/11/29 00:21:16;;;;;;;1.58;1.00;;;3.40;99.90;;;;;;4889433;29;20032;-66
2021/11/29 00:23:44;;;;;;;1.35;0.80;;;3.40;99.90;;;;;;4885237;29;20077;-66
2021/11/29 00:26:14;;;;;;;1.95;0.95;;;3.40;99.90;;;;;;4870713;29;20087;-65
2021/11/29 00:28:42;;;;;;;2.55;0.80;;;3.40;99.90;;;;;;4870471;29;20045;-65
2021/11/29 00:31:08;;;;;;;1.15;0.80;;;3.40;99.90;;;;;;4871245;29;20033;-66
2021/11/29 00:33:34;;;;;;;2.45;0.80;;;3.40;99.90;;;;;;4870912;29;20033;-65
2021/11/29 00:36:01;;;;;;;0.98;0.73;;;3.40;99.90;;;;;;4870638;29;20319;-66
2021/11/29 00:38:26;;;;;;;1.60;0.77;;;3.40;99.90;;;;;;4870408;29;20033;-66
2021/11/29 00:40:52;;;;;;;1.15;0.68;;;3.40;99.90;;;;;;4871027;29;20596;-66
2021/11/29 00:43:18;;;;;;;0.82;0.73;;;3.40;99.90;;;;;;4870333;29;20029;-66
2021/11/29 00:45:44;;;;;;;1.05;0.73;;;3.30;99.90;;;;;;4871281;29;20089;-66
2021/11/29 00:48:10;;;;;;;1.10;0.75;;;3.30;99.90;;;;;;4871398;29;20033;-66
2021/11/29 00:50:37;;;;;;;2.47;0.90;;;3.40;99.90;;;;;;4871538;29;20063;-66
2021/11/29 00:53:08;;;;;;;1.35;0.60;;;3.40;99.90;;;;;;4870340;29;20364;-66
2021/11/29 00:55:35;;;;;;;1.25;0.60;;;3.30;99.90;;;;;;4870465;29;20025;-66
2021/11/29 00:58:02;;;;;;;0.93;0.60;;;3.40;99.90;;;;;;4870927;29;20028;-67
2021/11/29 01:00:28;;;;;;;0.88;0.70;;;3.30;99.90;;;;;;4870432;29;20033;-66
2021/11/29 01:02:55;;;;;;;1.48;0.60;;;3.30;99.90;;;;;;4869995;29;20029;-66
2021/11/29 01:05:21;;;;;;;0.50;0.45;;;3.30;99.90;;;;;;4871118;29;20204;-66
2021/11/29 01:07:47;;;;;;;1.15;0.63;;;3.40;99.90;;;;;;4870440;29;20033;-66
2021/11/29 01:10:14;;;;;;;0.65;0.65;;;3.40;99.90;;;;;;4884368;29;20059;-66
2021/11/29 01:12:41;;;;;;;0.93;0.60;;;3.30;99.90;;;;;;4870601;29;20491;-66
2021/11/29 01:15:10;;;;;;;0.90;0.60;;;3.40;99.90;;;;;;4870635;29;20041;-66
2021/11/29 01:17:36;;;;;;;1.27;0.68;;;3.40;99.90;;;;;;4870882;29;20100;-65
2021/11/29 01:20:06;;;;;;;0.82;0.73;;;3.40;99.90;;;;;;4870928;29;20251;-66
2021/11/29 01:22:32;;;;;;;0.93;0.65;;;3.30;99.90;;;;;;4871549;29;20041;-65
2021/11/29 01:24:58;;;;;;;2.10;0.80;;;3.40;99.90;;;;;;4888837;29;20041;-65
2021/11/29 01:27:24;;;;;;;2.47;0.75;;;3.40;99.90;;;;;;4888079;29;20036;-65
2021/11/29 01:29:50;;;;;;;0.82;0.63;;;3.40;99.90;;;;;;4888830;29;20310;-66
2021/11/29 01:32:16;;;;;;;1.52;0.80;;;3.40;99.90;;;;;;4887942;29;20033;-66
2021/11/29 01:34:42;;;;;;;1.77;1.02;;;3.40;99.90;;;;;;4889032;29;20110;-66
2021/11/29 01:37:08;;;;;;;1.83;0.90;;;3.40;99.90;;;;;;4888374;29;20039;-65
2021/11/29 01:39:34;;;;;;;3.15;0.90;;;3.40;99.90;;;;;;4886392;29;20052;-66
2021/11/29 01:42:00;;;;;;;1.73;0.75;;;3.40;99.90;;;;;;4888717;29;20100;-65
2021/11/29 01:44:25;;;;;;;3.38;1.10;;;3.40;99.90;;;;;;4888096;29;20032;-65
2021/11/29 01:46:51;;;;;;;1.10;0.82;;;3.40;99.90;;;;;;4888581;29;20025;-65
2021/11/29 01:49:17;;;;;;;3.55;1.05;;;3.40;99.90;;;;;;4888403;29;20366;-65
2021/11/29 01:51:43;;;;;;;1.13;0.77;;;3.40;99.90;;;;;;4888704;29;20036;-65
2021/11/29 01:54:10;;;;;;;0.85;0.70;;;3.40;99.90;;;;;;4887903;29;20137;-65
2021/11/29 01:56:37;;;;;;;0.77;0.70;;;3.40;99.90;;;;;;4887489;29;20032;-65
2021/11/29 01:59:04;;;;;;;1.88;0.95;;;3.50;99.90;;;;;;4888114;29;20459;-65
2021/11/29 02:01:30;;;;;;;2.67;1.02;;;3.40;99.90;;;;;;4870665;29;20357;-66
2021/11/29 02:03:57;;;;;;;3.03;1.13;;;3.50;99.90;;;;;;4888313;29;20032;-66
2021/11/29 02:06:28;;;;;;;5.90;1.35;;;3.40;99.90;;;;;;4887687;29;20231;-66
2021/11/29 02:08:55;;;;;;;4.68;1.38;;;3.40;99.90;;;;;;4886580;29;20016;-65
2021/11/29 02:11:26;;;;;;;2.38;1.40;;;3.50;99.90;;;;;;4885985;29;20033;-66
2021/11/29 02:13:54;;;;;;;2.08;0.93;;;3.50;99.90;;;;;;4887370;29;20024;-65
2021/11/29 02:16:21;;;;;;;1.83;0.90;;;3.50;99.90;;;;;;4888000;29;20037;-65
2021/11/29 02:18:47;;;;;;;2.42;1.25;;;3.60;99.90;;;;;;4887687;29;20109;-65
2021/11/29 02:21:17;;;;;;;3.38;1.33;;;3.60;99.90;;;;;;4888202;29;20319;-65
2021/11/29 02:23:54;;;;;;;2.08;1.48;;;3.60;99.90;;;;;;4888239;29;20104;-65
2021/11/29 02:26:24;;;;;;;3.22;1.90;;;3.50;99.90;;;;;;4887854;29;20044;-65
2021/11/29 02:28:52;;;;;;;;;;;3.60;99.90;;;;;;4889435;29;20259;-66
2021/11/29 02:31:20;;;;;;;2.75;1.25;;;3.60;99.90;;;;;;4887679;29;19916;-65
2021/11/29 02:33:46;;;;;;;6.95;2.80;;;3.60;99.90;;;;;;4887618;29;20358;-66
2021/11/29 02:36:12;;;;;;;4.15;1.33;;;3.60;99.90;;;;;;4887802;29;20049;-65
2021/11/29 02:38:38;;;;;;;3.17;1.50;;;3.60;99.90;;;;;;4888634;29;20239;-66
2021/11/29 02:41:06;;;;;;;4.15;1.70;;;3.60;99.90;;;;;;4884622;29;20031;-65
2021/11/29 02:43:32;;;;;;;8.15;2.15;;;3.60;99.90;;;;;;4886727;29;20119;-65
2021/11/29 02:45:58;;;;;;;3.63;2.10;;;3.70;99.90;;;;;;4887374;29;20416;-66
2021/11/29 02:48:44;;;;;;;4.95;2.13;;;3.60;99.90;;;;;;4887670;29;20037;-65
2021/11/29 02:51:29;;;;;;;4.00;1.88;;;3.60;99.90;;;;;;4888185;29;20033;-65
2021/11/29 02:54:15;;;;;;;5.35;2.28;;;3.60;99.90;;;;;;4888510;29;20044;-65
2021/11/29 02:56:44;;;;;;;6.93;3.08;;;3.50;99.90;;;;;;4887951;29;20255;-66
2021/11/29 02:59:23;;;;;;;7.55;1.98;;;3.50;99.90;;;;;;4887903;29;20444;-65
2021/11/29 03:01:52;;;;;;;4.07;1.75;;;3.50;99.90;;;;;;4888328;29;20097;-66
2021/11/29 03:04:20;;;;;;;4.50;1.95;;;3.50;99.90;;;;;;4887747;29;20068;-66
2021/11/29 03:06:46;;;;;;;4.55;1.77;;;3.50;99.90;;;;;;4889456;29;20033;-66
2021/11/29 03:09:12;;;;;;;4.45;1.77;;;3.60;99.90;;;;;;4890878;29;20285;-66
2021/11/29 03:11:39;;;;;;;3.78;1.67;;;3.60;99.90;;;;;;4891151;29;20060;-65
2021/11/29 03:14:05;;;;;;;10.05;2.80;;;3.60;99.90;;;;;;4890748;29;20255;-65
2021/11/29 03:16:31;;;;;;;6.72;2.17;;;3.60;99.90;;;;;;4890506;29;20145;-65
2021/11/29 03:18:57;;;;;;;7.70;2.10;;;3.60;99.90;;;;;;4891045;29;20044;-66
2021/11/29 03:21:25;;;;;;;4.82;2.10;;;3.60;99.90;;;;;;4891785;29;20196;-65
2021/11/29 03:23:53;;;;;;;6.47;2.55;;;3.50;99.90;;;;;;4888237;29;20121;-66
2021/11/29 03:26:20;;;;;;;6.88;2.55;;;3.60;99.90;;;;;;4890486;29;20078;-65
2021/11/29 03:28:53;;;;;;;4.72;2.03;;;3.50;99.90;;;;;;4890828;29;20335;-66
2021/11/29 03:31:19;;;;;;;6.45;2.65;;;3.60;99.90;;;;;;4891333;29;20120;-66
2021/11/29 03:33:47;;;;;;;7.53;2.58;;;3.50;99.90;;;;;;4890214;29;20362;-65
2021/11/29 03:36:13;;;;;;;4.50;2.40;;;3.40;99.90;;;;;;4890336;29;20040;-65
2021/11/29 03:38:39;;;;;;;8.70;3.08;;;3.40;99.90;;;;;;4890109;29;20042;-66
2021/11/29 03:41:07;;;;;;;6.68;2.30;;;3.40;99.90;;;;;;4891313;29;20274;-66
2021/11/29 03:43:33;;;;;;;7.55;2.20;;;3.40;99.90;;;;;;4890830;29;20136;-66
2021/11/29 03:45:59;;;;;;;10.27;2.78;;;3.40;99.90;;;;;;4890827;29;20045;-65
2021/11/29 03:48:25;;;;;;;6.45;2.55;;;3.40;99.90;;;;;;4890552;29;20032;-65
2021/11/29 03:50:51;;;;;;;6.05;2.70;;;3.30;99.90;;;;;;4890836;29;20358;-65
2021/11/29 03:53:18;;;;;;;5.00;2.70;;;3.40;99.90;;;;;;4888660;29;20043;-66
2021/11/29 03:55:44;;;;;;;8.90;2.78;;;3.30;99.90;;;;;;4890372;29;20035;-66
2021/11/29 03:58:10;;;;;;;6.72;2.75;;;3.40;99.90;;;;;;4889850;29;20036;-66
2021/11/29 04:00:36;;;;;;;5.05;2.42;;;3.40;99.90;;;;;;4872176;29;20067;-66
2021/11/29 04:03:03;;;;;;;6.63;2.72;;;3.40;99.90;;;;;;4890936;29;20058;-66
2021/11/29 04:05:28;;;;;;;6.50;2.13;;;3.30;99.90;;;;;;4890917;29;20221;-65
2021/11/29 04:07:54;;;;;;;6.95;2.30;;;3.40;99.90;;;;;;4891171;29;20035;-65
2021/11/29 04:10:21;;;;;;;6.75;2.40;;;3.30;99.90;;;;;;4889799;29;20361;-66
2021/11/29 04:12:47;;;;;;;8.02;2.88;;;3.20;99.90;;;;;;4890150;29;20235;-66
2021/11/29 04:15:13;;;;;;;3.88;2.10;;;3.20;99.90;;;;;;4889617;29;20353;-66
2021/11/29 04:17:39;;;;;;;4.05;2.38;;;3.10;99.90;;;;;;4890561;29;20334;-66
2021/11/29 04:20:08;;;;;;;8.80;2.78;;;3.10;99.90;;;;;;4889496;29;20349;-66
2021/11/29 04:22:36;;;;;;;7.18;3.05;;;3.10;99.90;;;;;;4889344;29;20323;-66
2021/11/29 04:25:03;;;;;;;5.68;2.40;;;3.00;99.90;;;;;;4890548;29;20032;-67
2021/11/29 04:27:30;;;;;;;6.15;2.42;;;3.00;99.90;;;;;;4890388;29;20254;-67
2021/11/29 04:29:56;;;;;;;5.50;2.53;;;3.00;99.90;;;;;;4889853;29;20036;-65
2021/11/29 04:32:22;;;;;;;6.75;2.38;;;2.90;99.90;;;;;;4890532;29;20047;-65
2021/11/29 04:34:48;;;;;;;9.75;3.05;;;2.80;99.90;;;;;;4889492;29;20041;-65
2021/11/29 04:37:14;;;;;;;6.65;2.65;;;2.80;99.90;;;;;;4888457;29;20032;-65
2021/11/29 04:39:40;;;;;;;7.35;2.22;;;2.70;99.90;;;;;;4890564;29;20331;-66
2021/11/29 04:42:06;;;;;;;5.40;2.53;;;2.70;99.90;;;;;;4872537;29;20028;-66
2021/11/29 04:44:32;;;;;;;3.60;2.33;;;2.60;99.90;;;;;;4889655;29;20249;-66
2021/11/29 04:46:58;;;;;;;6.53;2.47;;;2.50;99.90;;;;;;4888552;29;20036;-66
2021/11/29 04:49:24;;;;;;;4.07;2.13;;;2.50;99.90;;;;;;4889633;29;20036;-66
2021/11/29 04:51:49;;;;;;;8.15;2.45;;;2.40;99.90;;;;;;4890245;29;20123;-66
2021/11/29 04:54:15;;;;;;;7.90;2.78;;;2.40;99.90;;;;;;4888659;29;20049;-66
2021/11/29 04:56:41;;;;;;;5.80;2.50;;;2.40;99.90;;;;;;4888986;29;20430;-68
2021/11/29 04:59:08;;;;;;;6.82;3.10;;;2.30;99.90;;;;;;4888869;29;20056;-70
2021/11/29 05:01:34;;;;;;;4.53;2.55;;;2.20;99.90;;;;;;4885378;29;20365;-70
2021/11/29 05:04:00;;;;;;;7.28;3.38;;;2.10;99.90;;;;;;4887556;29;20036;-70
2021/11/29 05:06:26;;;;;;;8.70;2.63;;;2.00;99.90;;;;;;4885763;29;20204;-70
2021/11/29 05:08:51;;;;;;;6.30;2.55;;;1.90;99.90;;;;;;4886262;29;20033;-70
2021/11/29 05:11:17;;;;;;;6.28;2.80;;;1.90;99.90;;;;;;4869650;29;20020;-70
2021/11/29 05:13:43;;;;;;;10.07;2.90;;;1.90;99.90;;;;;;4871294;29;20043;-70
2021/11/29 05:16:11;;;;;;;8.15;2.88;;;1.80;99.90;;;;;;4889167;29;20247;-69
2021/11/29 05:18:37;;;;;;;8.77;3.72;;;1.70;99.90;;;;;;4887842;29;20306;-70
2021/11/29 05:21:03;;;;;;;5.50;3.28;;;1.70;99.90;;;;;;4888423;29;20035;-68
2021/11/29 05:23:29;;;;;;;6.90;3.05;;;1.60;99.90;;;;;;4887453;29;20382;-71
2021/11/29 05:25:56;;;;;;;7.78;2.90;;;1.60;99.90;;;;;;4887791;29;20066;-71
2021/11/29 05:28:22;;;;;;;6.10;2.72;;;1.50;99.90;;;;;;4888321;29;20123;-71
2021/11/29 05:30:48;;;;;;;7.40;3.03;;;1.50;99.90;;;;;;4870944;29;20230;-71
2021/11/29 05:33:14;;;;;;;8.45;3.00;;;1.50;99.90;;;;;;4888495;29;20029;-71
2021/11/29 05:35:39;;;;;;;11.77;3.72;;;1.50;99.90;;;;;;4888883;29;20029;-71
2021/11/29 05:38:05;;;;;;;11.10;3.22;;;1.50;99.90;;;;;;4872516;29;20032;-71
2021/11/29 05:40:32;;;;;;;10.05;3.03;;;1.50;99.90;;;;;;4872269;29;20041;-71
2021/11/29 05:42:58;;;;;;;5.35;2.47;;;1.50;99.90;;;;;;4888170;29;20342;-71
2021/11/29 05:45:24;;;;;;;5.53;2.97;;;1.50;99.90;;;;;;4888749;29;20084;-71
2021/11/29 05:47:50;;;;;;;8.27;3.20;;;1.50;99.90;;;;;;4888734;29;20409;-71
2021/11/29 05:50:17;;;;;;;6.18;3.40;;;1.40;99.90;;;;;;4888586;29;20270;-71
2021/11/29 05:52:44;;;;;;;7.32;2.85;;;1.50;99.90;;;;;;4886586;29;20051;-71
2021/11/29 05:55:12;;;;;;;9.05;3.40;;;1.60;99.90;;;;;;4886030;29;20122;-71
2021/11/29 05:57:39;;;;;;;11.85;5.35;;;1.60;99.90;;;;;;4887569;29;20319;-71
2021/11/29 06:00:07;;;;;;;11.13;4.97;;;1.60;99.90;;;;;;4886064;29;20048;-71
2021/11/29 06:02:33;;;;;;;7.05;4.32;;;1.60;99.90;;;;;;4886646;29;20029;-71
2021/11/29 06:04:59;;;;;;;6.82;3.60;;;1.60;99.90;;;;;;4886556;29;20033;-72
2021/11/29 06:07:25;;;;;;;10.10;4.43;;;1.50;99.90;;;;;;4887873;29;20111;-72
2021/11/29 06:09:51;;;;;;;7.32;3.13;;;1.50;99.90;;;;;;4888135;29;20037;-72
2021/11/29 06:12:17;;;;;;;7.30;2.75;;;1.40;99.90;;;;;;4886377;29;20240;-71
2021/11/29 06:14:42;;;;;;;5.07;2.90;;;1.50;99.90;;;;;;4886722;29;20029;-72
2021/11/29 06:17:08;;;;;;;6.03;2.83;;;1.40;99.90;;;;;;4889169;29;20040;-72
2021/11/29 06:19:34;;;;;;;9.95;3.15;;;1.30;99.90;;;;;;4887003;29;20040;-71
2021/11/29 06:22:00;;;;;;;9.50;3.17;;;1.30;99.90;;;;;;4884979;29;20033;-71
2021/11/29 06:24:26;;;;;;;5.40;2.95;;;1.20;99.90;;;;;;4888011;29;20362;-72
2021/11/29 06:26:51;;;;;;;7.38;2.63;;;1.20;99.90;;;;;;4886383;29;20028;-72
2021/11/29 06:29:17;;;;;;;8.00;2.53;;;1.20;99.90;;;;;;4887992;29;20100;-72
2021/11/29 06:31:43;;;;;;;6.72;2.80;;;1.30;99.90;;;;;;4887414;29;20228;-72
2021/11/29 06:34:09;;;;;;;5.45;2.65;;;1.20;99.90;;;;;;4889178;29;20131;-71
2021/11/29 06:36:35;;;;;;;4.47;2.60;;;1.20;99.90;;;;;;4887451;29;20073;-72
2021/11/29 06:39:01;;;;;;;5.63;3.22;;;1.20;99.90;;;;;;4887731;29;20040;-71
2021/11/29 06:41:27;;;;;;;6.38;2.65;;;1.30;99.90;;;;;;4892029;29;20032;-71
2021/11/29 06:43:53;;;;;;;6.20;2.70;;;1.20;99.90;;;;;;4893464;29;20029;-71
2021/11/29 06:46:20;;;;;;;6.80;2.70;;;1.20;99.90;;;;;;4890017;29;20031;-71
2021/11/29 06:48:46;;;;;;;6.85;2.80;;;1.10;99.90;;;;;;4892279;29;20590;-71
2021/11/29 06:51:13;;;;;;;3.67;2.40;;;1.20;99.90;;;;;;4891313;29;20021;-71
2021/11/29 06:53:40;;;;;;;4.63;2.45;;;1.20;99.90;;;;;;4892619;29;20037;-72
2021/11/29 06:56:06;;;;;;;7.38;3.42;;;1.20;99.90;;;;;;4892064;29;20451;-71
2021/11/29 06:58:33;;;;;;;7.38;3.58;;;1.20;99.90;;;;;;4890136;29;20067;-71
2021/11/29 07:00:59;;;;;;;7.80;2.88;;;1.20;99.90;;;;;;4891089;29;20036;-72
2021/11/29 07:03:25;;;;;;;8.48;3.00;;;1.10;99.90;;;;;;4892628;29;20024;-71
2021/11/29 07:05:51;;;;;;;6.55;2.70;;;1.10;99.90;;;;;;4892232;29;20148;-71
2021/11/29 07:08:18;;;;;;;5.22;3.10;;;1.10;99.90;;;;;;4888989;29;20315;-71
2021/11/29 07:10:45;;;;;;;5.47;3.30;;;1.10;99.90;;;;;;4892138;29;20024;-71
2021/11/29 07:13:13;;;;;;;7.15;4.20;;;1.00;99.90;;;;;;4890858;29;20040;-71
2021/11/29 07:15:40;;;;;;;8.40;3.33;;;1.00;99.90;;;;;;4891210;29;20033;-71
2021/11/29 07:18:07;;;;;;;8.02;4.18;;;1.10;99.90;;;;;;4891360;29;20025;-71
2021/11/29 07:20:33;;;;;;;7.00;4.00;;;1.10;99.90;;;;;;4892037;29;20782;-71
2021/11/29 07:23:00;;;;;;;10.68;4.30;;;1.00;99.90;;;;;;4889871;29;20056;-71
2021/11/29 07:25:26;;;;;;;6.78;4.35;;;1.00;99.90;;;;;;4890685;29;20069;-71
2021/11/29 07:27:52;;;;;;;7.22;4.60;;;1.00;99.90;;;;;;4890642;29;20035;-71
2021/11/29 07:30:20;;;;;;;6.68;4.13;;;0.90;99.90;;;;;;4890296;29;20032;-71
2021/11/29 07:32:46;;;;;;;6.32;3.92;;;1.00;99.90;;;;;;4889982;29;20040;-71
2021/11/29 07:35:12;;;;;;;6.15;4.05;;;1.00;99.90;;;;;;4891068;29;20125;-71
2021/11/29 07:37:40;;;;;;;6.90;4.03;;;1.00;99.90;;;;;;4889554;29;20295;-71
2021/11/29 07:40:08;;;;;;;10.15;4.13;;;0.90;99.90;;;;;;4891062;29;20297;-71
2021/11/29 07:42:34;;;;;;;10.63;4.18;;;1.00;99.90;;;;;;4892503;29;20024;-71
2021/11/29 07:45:00;;;;;;;8.30;3.95;;;0.90;99.90;;;;;;4890206;29;20223;-71
2021/11/29 07:47:27;;;;;;;10.73;4.10;;;1.00;99.90;;;;;;4890200;29;20047;-71
2021/11/29 07:49:53;;;;;;;8.35;3.75;;;1.00;99.90;;;;;;4889657;29;20036;-71
2021/11/29 07:52:19;;;;;;;6.30;3.13;;;1.00;99.90;;;;;;4888353;29;20116;-71
2021/11/29 07:54:46;;;;;;;7.30;3.42;;;0.90;99.90;;;;;;4890976;29;20029;-71
2021/11/29 07:57:14;;;;;;;6.95;3.50;;;1.00;99.90;;;;;;4890021;29;20048;-71
2021/11/29 07:59:42;;;;;;;9.48;4.03;;;1.00;99.90;;;;;;4889691;29;20060;-71
2021/11/29 08:02:10;;;;;;;8.73;4.53;;;1.00;99.90;;;;;;4890072;29;20040;-71
2021/11/29 08:04:36;;;;;;;7.03;3.92;;;1.00;99.90;;;;;;4890074;29;20097;-71
2021/11/29 08:07:02;;;;;;;22.02;6.43;;;0.90;99.90;;;;;;4889192;29;20040;-71
2021/11/29 08:09:28;;;;;;;13.68;4.82;;;0.90;99.90;;;;;;4891005;29;20315;-71
2021/11/29 08:11:54;;;;;;;8.00;4.25;;;0.90;99.90;;;;;;4890513;29;20031;-71
2021/11/29 08:14:20;;;;;;;9.63;4.13;;;0.90;99.90;;;;;;4890284;29;20581;-71
2021/11/29 08:16:46;;;;;;;10.07;4.60;;;0.90;99.90;;;;;;4891398;29;20025;-71
2021/11/29 08:19:11;;;;;;;9.50;4.03;;;1.00;99.90;;;;;;4888550;29;20339;-71
2021/11/29 08:21:37;;;;;;;9.00;3.88;;;1.00;99.90;;;;;;4888280;29;20276;-71
2021/11/29 08:24:04;;;;;;;9.45;4.13;;;1.00;99.90;;;;;;4890375;29;20067;-71
2021/11/29 08:26:30;;;;;;;7.97;4.45;;;1.00;99.90;;;;;;4890717;29;20032;-71
2021/11/29 08:28:56;;;;;;;9.55;4.63;;;1.00;99.90;;;;;;4889096;29;20042;-71
2021/11/29 08:31:22;;;;;;;9.88;4.57;;;1.10;99.90;;;;;;4872155;29;20059;-71
2021/11/29 08:33:48;;;;;;;10.43;4.70;;;1.10;99.90;;;;;;4890847;29;20044;-71
2021/11/29 08:36:14;;;;;;;22.25;5.43;;;1.20;99.90;;;;;;4890488;29;20372;-71
2021/11/29 08:38:40;;;;;;;14.48;5.22;;;1.20;99.90;;;;;;4890196;29;20051;-71
2021/11/29 08:41:06;;;;;;;12.65;5.85;;;1.20;99.90;;;;;;4889241;29;20059;-71
2021/11/29 08:43:32;;;;;;;12.35;5.60;;;1.30;99.90;;;;;;4890253;29;20033;-71
2021/11/29 08:45:58;;;;;;;13.10;5.63;;;1.30;99.90;;;;;;4887516;29;20111;-71
2021/11/29 08:48:25;;;;;;;13.30;5.63;;;1.30;99.90;;;;;;4889802;29;20055;-71
2021/11/29 08:50:53;;;;;;;10.82;5.35;;;1.40;99.90;;;;;;4888854;29;20033;-71
2021/11/29 08:53:23;;;;;;;11.02;4.75;;;1.50;99.90;;;;;;4889280;29;20114;-71
2021/11/29 08:55:50;;;;;;;9.98;4.63;;;1.90;99.90;;;;;;4888787;29;20268;-72
2021/11/29 08:58:16;;;;;;;13.85;5.32;;;3.00;99.90;;;;;;4889229;29;20040;-72
2021/11/29 09:00:46;;;;;;;8.65;3.60;;;4.60;99.90;;;;;;4888504;29;20368;-72
2021/11/29 09:03:12;;;;;;;7.97;3.45;;;6.40;99.90;;;;;;4889841;29;20350;-72
2021/11/29 09:05:41;;;;;;;10.48;3.47;;;7.90;99.90;;;;;;4888402;29;20028;-72
2021/11/29 09:08:07;;;;;;;7.93;3.03;;;9.00;99.90;;;;;;4889110;29;20309;-73
2021/11/29 09:10:33;;;;;;;5.50;3.22;;;9.90;99.90;;;;;;4872719;29;20407;-73
2021/11/29 09:12:59;;;;;;;6.47;3.20;;;10.60;99.90;;;;;;4888194;29;20194;-73
2021/11/29 09:15:26;;;;;;;7.88;3.03;;;11.10;99.90;;;;;;4888246;29;20076;-73
2021/11/29 09:17:52;;;;;;;5.93;2.90;;;11.70;99.90;;;;;;4888306;29;20028;-72
2021/11/29 09:20:21;;;;;;;4.85;2.58;;;11.80;99.90;;;;;;4889176;29;20425;-72
2021/11/29 09:22:48;;;;;;;4.35;1.95;;;12.20;99.90;;;;;;4888982;29;20230;-72
2021/11/29 09:25:14;;;;;;;9.07;3.25;;;12.80;99.90;;;;;;4887453;29;20305;-69
2021/11/29 09:27:42;;;;;;;5.05;2.55;;;13.40;99.30;;;;;;4889053;29;20040;-70
2021/11/29 09:30:11;;;;;;;6.55;2.28;;;13.90;98.30;;;;;;4888370;29;20428;-70
2021/11/29 09:32:38;;;;;;;4.80;2.90;;;13.90;97.90;;;;;;4888026;29;20025;-70
2021/11/29 09:35:10;;;;;;;6.95;3.60;;;14.00;97.10;;;;;;4888145;29;20044;-72
2021/11/29 09:37:37;;;;;;;11.27;4.07;;;14.10;97.70;;;;;;4888362;29;20057;-70
2021/11/29 09:40:06;;;;;;;6.05;3.10;;;14.80;97.00;;;;;;4889502;29;20052;-70
2021/11/29 09:42:33;;;;;;;5.88;3.40;;;14.90;96.40;;;;;;4888065;29;20029;-70
2021/11/29 09:45:00;;;;;;;8.07;2.63;;;15.10;96.60;;;;;;4888242;29;20150;-70
2021/11/29 09:47:25;;;;;;;6.10;2.83;;;15.20;95.40;;;;;;4887987;29;20036;-70
2021/11/29 09:49:55;;;;;;;5.05;2.50;;;14.90;95.90;;;;;;4888114;29;20284;-70
2021/11/29 09:52:22;;;;;;;7.38;2.78;;;15.00;95.80;;;;;;4886598;29;20037;-70
2021/11/29 09:54:49;;;;;;;6.90;2.60;;;14.60;95.80;;;;;;4888475;29;20028;-70
2021/11/29 09:57:16;;;;;;;4.85;2.60;;;14.40;96.00;;;;;;4887303;29;20048;-70
2021/11/29 09:59:42;;;;;;;3.35;2.10;;;14.30;95.70;;;;;;4887879;29;20052;-70
2021/11/29 10:02:13;;;;;;;4.72;2.30;;;13.80;96.50;;;;;;4886351;29;20050;-70
2021/11/29 10:04:47;;;;;;;4.22;2.38;;;13.40;96.80;;;;;;4886263;29;20033;-72
2021/11/29 10:07:27;;;;;;;4.72;2.50;;;12.60;97.20;;;;;;4888162;29;20036;-72
2021/11/29 10:09:56;;;;;;;;;;;12.40;97.40;;;;;;4888626;29;20314;-72
2021/11/29 10:12:24;;;;;;;6.85;2.53;;;13.10;97.70;;;;;;4887548;29;20171;-70
2021/11/29 10:15:36;;;;;;;3.70;2.10;;;14.30;96.70;;;;;;4889758;29;20032;-70
2021/11/29 10:18:10;;;;;;;5.15;2.63;;;15.20;95.80;;;;;;4840694;29;20467;-70
2021/11/29 10:20:52;;;;;;;7.05;3.13;;;15.20;95.90;;;;;;4841703;29;20041;-70
2021/11/29 10:23:27;;;;;;;7.75;3.08;;;15.50;95.30;;;;;;4873928;29;20062;-70
2021/11/29 10:25:53;;;;;;;6.05;2.45;;;14.80;94.50;;;;;;4874397;29;20397;-70
2021/11/29 10:28:36;;;;;;;4.40;2.42;;;13.80;95.90;;;;;;4890547;29;20119;-70
2021/11/29 10:31:19;;;;;;;6.25;3.33;;;12.80;97.00;;;;;;4891735;29;20033;-72
2021/11/29 10:33:58;;;;;;;6.38;2.50;;;12.60;97.00;;;;;;4891509;29;20040;-70
2021/11/29 10:36:27;;;;;;;3.38;1.92;;;12.90;97.40;;;;;;4890448;29;20043;-69
2021/11/29 10:39:00;;;;;;;4.45;2.38;;;14.10;97.20;;;;;;4891760;29;20044;-72
2021/11/29 10:41:29;;;;;;;3.88;2.25;;;15.40;95.50;;;;;;4890652;29;20025;-72
2021/11/29 10:43:56;;;;;;;3.50;2.25;;;16.10;94.90;;;;;;4890712;29;20067;-72
2021/11/29 10:46:27;;;;;;;7.72;2.80;;;17.30;94.10;;;;;;4890541;29;20355;-71
2021/11/29 10:48:55;;;;;;;6.90;3.10;;;17.60;93.10;;;;;;4891871;29;20088;-71
2021/11/29 10:51:22;;;;;;;3.65;2.25;;;16.90;93.50;;;;;;4890370;29;20033;-71
2021/11/29 10:53:57;;;;;;;4.43;2.35;;;15.50;94.30;;;;;;4890656;29;20263;-72
2021/11/29 10:56:27;;;;;;;5.00;2.78;;;15.50;94.80;;;;;;4890727;29;20031;-71
2021/11/29 10:58:54;;;;;;;;;;;16.00;93.70;;;;;;4891609;29;20119;-72
2021/11/29 11:01:34;;;;;;;6.57;2.50;;;15.80;93.60;;;;;;4891594;29;19990;-72
2021/11/29 11:04:00;;;;;;;3.75;1.90;;;15.10;94.10;;;;;;4888479;29;20055;-69
2021/11/29 11:06:34;;;;;;;5.20;2.13;;;15.20;94.60;;;;;;4890553;29;20040;-69
2021/11/29 11:09:00;;;;;;;3.25;1.70;;;15.80;93.30;;;;;;4888965;29;20390;-72
2021/11/29 11:11:31;;;;;;;3.63;1.90;;;16.50;93.10;;;;;;4891660;29;20043;-71
2021/11/29 11:14:05;;;;;;;4.80;2.85;;;17.00;93.30;;;;;;4890678;29;20103;-71
2021/11/29 11:16:46;;;;;;;3.80;2.10;;;16.90;92.40;;;;;;4891076;29;20025;-71
2021/11/29 11:19:27;;;;;;;4.00;2.15;;;16.70;92.30;;;;;;4890796;29;20293;-71
2021/11/29 11:21:55;;;;;;;3.58;1.95;;;17.10;92.70;;;;;;4888238;29;20025;-72
2021/11/29 11:24:27;;;;;;;5.90;2.10;;;17.00;91.80;;;;;;4891952;29;20060;-71
2021/11/29 11:26:59;;;;;;;5.55;2.28;;;16.80;92.50;;;;;;4890738;29;20123;-71
2021/11/29 11:29:37;;;;;;;6.13;2.72;;;16.50;92.40;;;;;;4891554;29;20037;-71
2021/11/29 11:32:16;;;;;;;4.18;2.08;;;16.30;92.90;;;;;;4890318;29;20060;-71
2021/11/29 11:34:46;;;;;;;4.68;2.03;;;16.90;92.80;;;;;;4890066;29;20033;-72
2021/11/29 11:37:13;;;;;;;6.35;2.15;;;17.10;92.00;;;;;;4890449;29;20043;-72
2021/11/29 11:39:40;;;;;;;3.70;1.95;;;17.40;91.90;;;;;;4890128;29;20040;-71
2021/11/29 11:42:07;;;;;;;3.38;1.80;;;17.80;91.80;;;;;;4890865;29;20037;-71
2021/11/29 11:44:36;;;;;;;2.63;1.63;;;18.30;91.30;;;;;;4873987;29;20338;-71
2021/11/29 11:47:03;;;;;;;2.97;1.80;;;18.80;90.90;;;;;;4890980;29;20099;-71
2021/11/29 11:49:29;;;;;;;4.13;2.05;;;18.30;90.90;;;;;;4890924;29;20534;-71
2021/11/29 11:51:55;;;;;;;3.33;1.50;;;18.20;91.20;;;;;;4874065;29;20254;-71
2021/11/29 11:54:21;;;;;;;1.73;1.45;;;18.90;90.30;;;;;;4890086;29;20119;-71
2021/11/29 11:56:47;;;;;;;1.83;1.15;;;18.60;89.30;;;;;;4873468;29;20040;-71
2021/11/29 11:59:18;;;;;;;3.88;1.55;;;18.80;89.20;;;;;;4889990;29;20040;-71
2021/11/29 12:01:46;;;;;;;3.47;1.40;;;18.40;90.40;;;;;;4890217;29;20028;-71
2021/11/29 12:04:15;;;;;;;7.97;1.83;;;18.70;88.50;;;;;;4889546;29;20337;-71
2021/11/29 12:06:43;;;;;;;2.25;1.10;;;19.00;89.50;;;;;;4889290;29;20135;-72
2021/11/29 12:09:11;;;;;;;1.90;1.35;;;18.40;89.20;;;;;;4888895;29;20403;-72
2021/11/29 12:11:39;;;;;;;4.53;1.88;;;18.90;89.30;;;;;;4889865;29;20128;-71
2021/11/29 12:14:27;;;;;;;2.78;1.63;;;18.80;88.50;;;;;;4889899;29;20313;-71
2021/11/29 12:16:56;;;;;;;5.07;1.80;;;18.90;88.30;;;;;;4889570;29;20055;-71
2021/11/29 12:19:25;;;;;;;2.38;1.58;;;19.00;88.30;;;;;;4888934;29;20351;-72
2021/11/29 12:22:15;;;;;;;1.65;1.15;;;19.10;87.60;;;;;;4889268;29;20223;-71
2021/11/29 12:24:45;;;;;;;3.22;1.63;;;18.70;87.60;;;;;;4878349;29;20269;-71
2021/11/29 12:27:12;;;;;;;;;;;18.70;87.20;;;;;;4889935;29;20293;-71
2021/11/29 12:29:53;;;;;;;3.00;1.75;;;18.40;88.30;;;;;;4890497;29;20144;-71
2021/11/29 12:32:23;;;;;;;2.80;1.50;;;18.00;88.20;;;;;;4888229;29;20036;-71
2021/11/29 12:34:55;;;;;;;6.35;2.00;;;18.00;88.50;;;;;;4889887;29;20282;-71
2021/11/29 12:37:27;;;;;;;3.47;1.98;;;17.70;89.00;;;;;;4888080;29;20040;-71
2021/11/29 12:39:57;;;;;;;3.42;1.83;;;18.70;88.40;;;;;;4889661;29;20048;-71
2021/11/29 12:42:26;;;;;;;4.07;2.10;;;19.70;86.80;;;;;;4889465;29;20034;-72
2021/11/29 12:44:55;;;;;;;4.72;2.00;;;20.00;86.10;;;;;;4889324;29;20118;-71
2021/11/29 12:47:30;;;;;;;2.40;1.60;;;20.40;85.20;;;;;;4889156;29;20040;-71
2021/11/29 12:50:01;;;;;;;2.53;1.80;;;20.20;85.10;;;;;;4890023;29;20028;-71
2021/11/29 12:52:27;;;;;;;5.28;1.58;;;19.60;85.40;;;;;;4888462;29;20088;-71
2021/11/29 12:54:55;;;;;;;3.05;1.67;;;19.90;85.10;;;;;;4889700;29;20056;-71
2021/11/29 12:57:34;;;;;;;3.45;1.58;;;19.70;84.90;;;;;;4889288;29;20137;-71
2021/11/29 13:00:19;;;;;;;4.72;2.08;;;18.90;86.30;;;;;;4888810;29;20060;-71